sensor_id;sensor_type;location;lat;lon;timestamp;pressure;altitude;pressure_sealevel;temperature
13497;BMP180;6820;49.374;8.452;2023-03-14T00:02:55;98787.25;;;18.29
13497;BMP180;6820;49.374;8.452;2023-03-14T00:06:56;98795.78;;;18.30
13497;BMP180;6820;49.374;8.452;2023-03-14T00:11:06;98800.94;;;18.32
13497;BMP180;6820;49.374;8.452;2023-03-14T00:15:09;98796.63;;;18.30
13497;BMP180;6820;49.374;8.452;2023-03-14T00:19:11;98804.34;;;18.32
13497;BMP180;6820;49.374;8.452;2023-03-14T00:23:13;98793.22;;;18.30
13497;BMP180;6820;49.374;8.452;2023-03-14T00:27:14;98774.44;;;18.31
13497;BMP180;6820;49.374;8.452;2023-03-14T00:31:16;98777.00;;;18.31
13497;BMP180;6820;49.374;8.452;2023-03-14T00:35:18;98783.81;;;18.30
13497;BMP180;6820;49.374;8.452;2023-03-14T00:39:20;98787.22;;;18.27
13497;BMP180;6820;49.374;8.452;2023-03-14T00:43:21;98772.63;;;18.20
13497;BMP180;6820;49.374;8.452;2023-03-14T00:47:23;98761.53;;;18.18
13497;BMP180;6820;49.374;8.452;2023-03-14T00:51:26;98756.41;;;18.20
13497;BMP180;6820;49.374;8.452;2023-03-14T00:55:29;98771.78;;;18.20
13497;BMP180;6820;49.374;8.452;2023-03-14T00:59:31;98779.47;;;18.17
13497;BMP180;6820;49.374;8.452;2023-03-14T01:03:33;98779.47;;;18.18
13497;BMP180;6820;49.374;8.452;2023-03-14T01:07:34;98776.88;;;18.14
13497;BMP180;6820;49.374;8.452;2023-03-14T01:11:36;98793.94;;;18.09
13497;BMP180;6820;49.374;8.452;2023-03-14T01:15:38;98774.28;;;18.06
13497;BMP180;6820;49.374;8.452;2023-03-14T01:19:39;98766.59;;;18.05
13497;BMP180;6820;49.374;8.452;2023-03-14T01:23:42;98760.53;;;18.00
13497;BMP180;6820;49.374;8.452;2023-03-14T01:27:44;98751.13;;;17.98
13497;BMP180;6820;49.374;8.452;2023-03-14T01:31:45;98741.75;;;17.99
13497;BMP180;6820;49.374;8.452;2023-03-14T01:35:49;98742.59;;;18.01
13497;BMP180;6820;49.374;8.452;2023-03-14T01:39:51;98734.06;;;17.99
13497;BMP180;6820;49.374;8.452;2023-03-14T01:43:54;98728.06;;;17.98
13497;BMP180;6820;49.374;8.452;2023-03-14T01:47:55;98722.03;;;17.90
13497;BMP180;6820;49.374;8.452;2023-03-14T01:52:07;98712.59;;;17.84
13497;BMP180;6820;49.374;8.452;2023-03-14T01:56:12;98695.53;;;17.83
13497;BMP180;6820;49.374;8.452;2023-03-14T02:00:19;98694.66;;;17.83
13497;BMP180;6820;49.374;8.452;2023-03-14T02:04:23;98684.41;;;17.84
13497;BMP180;6820;49.374;8.452;2023-03-14T02:08:27;98683.53;;;17.82
13497;BMP180;6820;49.374;8.452;2023-03-14T02:12:34;98677.53;;;17.80
13497;BMP180;6820;49.374;8.452;2023-03-14T02:16:45;98668.19;;;17.81
13497;BMP180;6820;49.374;8.452;2023-03-14T02:21:23;98657.91;;;17.78
13497;BMP180;6820;49.374;8.452;2023-03-14T02:25:46;98657.88;;;17.73
13497;BMP180;6820;49.374;8.452;2023-03-14T02:29:53;98656.16;;;17.68
13497;BMP180;6820;49.374;8.452;2023-03-14T02:33:57;98644.16;;;17.64
13497;BMP180;6820;49.374;8.452;2023-03-14T02:38:10;98634.78;;;17.63
13497;BMP180;6820;49.374;8.452;2023-03-14T02:42:18;98639.91;;;17.65
13497;BMP180;6820;49.374;8.452;2023-03-14T02:46:21;98639.03;;;17.67
13497;BMP180;6820;49.374;8.452;2023-03-14T02:50:26;98649.31;;;17.66
13497;BMP180;6820;49.374;8.452;2023-03-14T02:54:30;98663.81;;;17.65
13497;BMP180;6820;49.374;8.452;2023-03-14T02:58:33;98647.59;;;17.66
13497;BMP180;6820;49.374;8.452;2023-03-14T03:02:42;98638.22;;;17.69
13497;BMP180;6820;49.374;8.452;2023-03-14T03:06:44;98649.31;;;17.68
13497;BMP180;6820;49.374;8.452;2023-03-14T03:10:46;98640.75;;;17.62
13497;BMP180;6820;49.374;8.452;2023-03-14T03:14:48;98627.94;;;17.61
13497;BMP180;6820;49.374;8.452;2023-03-14T03:18:50;98624.50;;;17.57
13497;BMP180;6820;49.374;8.452;2023-03-14T03:22:51;98588.63;;;17.56
13497;BMP180;6820;49.374;8.452;2023-03-14T03:26:53;98584.38;;;17.55
13497;BMP180;6820;49.374;8.452;2023-03-14T03:30:55;98574.13;;;17.55
13497;BMP180;6820;49.374;8.452;2023-03-14T03:34:56;98563.84;;;17.53
13497;BMP180;6820;49.374;8.452;2023-03-14T03:38:59;98557.03;;;17.54
13497;BMP180;6820;49.374;8.452;2023-03-14T03:43:00;98545.94;;;17.53
13497;BMP180;6820;49.374;8.452;2023-03-14T03:47:03;98554.44;;;17.51
13497;BMP180;6820;49.374;8.452;2023-03-14T03:51:05;98527.97;;;17.47
13497;BMP180;6820;49.374;8.452;2023-03-14T03:55:08;98537.38;;;17.48
13497;BMP180;6820;49.374;8.452;2023-03-14T03:59:10;98555.31;;;17.47
13497;BMP180;6820;49.374;8.452;2023-03-14T04:03:11;98567.25;;;17.46
13497;BMP180;6820;49.374;8.452;2023-03-14T04:07:13;98567.25;;;17.46
13497;BMP180;6820;49.374;8.452;2023-03-14T04:11:17;98560.44;;;17.50
13497;BMP180;6820;49.374;8.452;2023-03-14T04:15:34;98562.13;;;17.49
13497;BMP180;6820;49.374;8.452;2023-03-14T04:19:42;98560.44;;;17.50
13497;BMP180;6820;49.374;8.452;2023-03-14T04:23:45;98555.31;;;17.47
13497;BMP180;6820;49.374;8.452;2023-03-14T04:27:47;98541.63;;;17.42
13497;BMP180;6820;49.374;8.452;2023-03-14T04:31:56;98541.59;;;17.38
13497;BMP180;6820;49.374;8.452;2023-03-14T04:35:58;98530.47;;;17.31
13497;BMP180;6820;49.374;8.452;2023-03-14T04:40:00;98525.31;;;17.27
13497;BMP180;6820;49.374;8.452;2023-03-14T04:44:06;98506.56;;;17.25
13497;BMP180;6820;49.374;8.452;2023-03-14T04:48:08;98514.19;;;17.19
13497;BMP180;6820;49.374;8.452;2023-03-14T04:52:11;98506.47;;;17.13
13497;BMP180;6820;49.374;8.452;2023-03-14T04:56:13;98512.44;;;17.10
13497;BMP180;6820;49.374;8.452;2023-03-14T05:00:17;98525.25;;;17.12
13497;BMP180;6820;49.374;8.452;2023-03-14T05:04:38;98527.81;;;17.15
13497;BMP180;6820;49.374;8.452;2023-03-14T05:09:03;98522.78;;;17.28
13497;BMP180;6820;49.374;8.452;2023-03-14T05:13:39;98512.53;;;17.30
13497;BMP180;6820;49.374;8.452;2023-03-14T05:17:49;98525.31;;;17.22
13497;BMP180;6820;49.374;8.452;2023-03-14T05:22:10;98524.41;;;17.16
13497;BMP180;6820;49.374;8.452;2023-03-14T05:26:31;98508.97;;;17.10
13497;BMP180;6820;49.374;8.452;2023-03-14T05:30:53;98513.31;;;17.18
13497;BMP180;6820;49.374;8.452;2023-03-14T05:35:17;98502.28;;;17.28
13497;BMP180;6820;49.374;8.452;2023-03-14T05:39:28;98505.75;;;17.39
13497;BMP180;6820;49.374;8.452;2023-03-14T05:43:53;98511.78;;;17.47
13497;BMP180;6820;49.374;8.452;2023-03-14T05:48:09;98506.66;;;17.53
13497;BMP180;6820;49.374;8.452;2023-03-14T05:52:18;98510.09;;;17.56
13497;BMP180;6820;49.374;8.452;2023-03-14T05:56:33;98499.00;;;17.59
13497;BMP180;6820;49.374;8.452;2023-03-14T06:01:07;98500.72;;;17.60
13497;BMP180;6820;49.374;8.452;2023-03-14T06:05:27;98505.84;;;17.64
13497;BMP180;6820;49.374;8.452;2023-03-14T06:09:33;98505.00;;;17.69
13497;BMP180;6820;49.374;8.452;2023-03-14T06:13:36;98511.88;;;17.76
13497;BMP180;6820;49.374;8.452;2023-03-14T06:17:38;98511.03;;;17.82
13497;BMP180;6820;49.374;8.452;2023-03-14T06:21:44;98505.06;;;17.84
13497;BMP180;6820;49.374;8.452;2023-03-14T06:25:46;98502.53;;;17.90
13497;BMP180;6820;49.374;8.452;2023-03-14T06:29:47;98506.81;;;17.96
13497;BMP180;6820;49.374;8.452;2023-03-14T06:33:49;98505.16;;;18.09
13497;BMP180;6820;49.374;8.452;2023-03-14T06:37:52;98501.75;;;18.19
13497;BMP180;6820;49.374;8.452;2023-03-14T06:41:53;98497.47;;;18.23
13497;BMP180;6820;49.374;8.452;2023-03-14T06:45:56;98496.63;;;18.22
13497;BMP180;6820;49.374;8.452;2023-03-14T06:49:58;98493.22;;;18.22
13497;BMP180;6820;49.374;8.452;2023-03-14T06:54:00;98488.94;;;18.22
13497;BMP180;6820;49.374;8.452;2023-03-14T06:58:03;98488.09;;;18.28
13497;BMP180;6820;49.374;8.452;2023-03-14T07:02:11;98478.69;;;18.22
13497;BMP180;6820;49.374;8.452;2023-03-14T07:06:15;98475.28;;;18.23
13497;BMP180;6820;49.374;8.452;2023-03-14T07:10:17;98479.56;;;18.29
13497;BMP180;6820;49.374;8.452;2023-03-14T07:14:19;98488.09;;;18.33
13497;BMP180;6820;49.374;8.452;2023-03-14T07:18:23;98495.81;;;18.36
13497;BMP180;6820;49.374;8.452;2023-03-14T07:22:24;98506.06;;;18.41
13497;BMP180;6820;49.374;8.452;2023-03-14T07:26:26;98508.63;;;18.42
13497;BMP180;6820;49.374;8.452;2023-03-14T07:30:28;98514.59;;;18.40
13497;BMP180;6820;49.374;8.452;2023-03-14T07:34:32;98511.19;;;18.47
13497;BMP180;6820;49.374;8.452;2023-03-14T07:38:34;98520.59;;;18.46
13497;BMP180;6820;49.374;8.452;2023-03-14T07:42:54;98512.06;;;18.53
13497;BMP180;6820;49.374;8.452;2023-03-14T07:47:14;98509.47;;;18.69
13497;BMP180;6820;49.374;8.452;2023-03-14T07:51:15;98503.50;;;18.82
13497;BMP180;6820;49.374;8.452;2023-03-14T07:55:17;98501.75;;;18.81
13497;BMP180;6820;49.374;8.452;2023-03-14T07:59:19;98503.50;;;18.66
13497;BMP180;6820;49.374;8.452;2023-03-14T08:03:21;98519.75;;;18.80
13497;BMP180;6820;49.374;8.452;2023-03-14T08:07:22;98515.44;;;18.89
13497;BMP180;6820;49.374;8.452;2023-03-14T08:11:24;98516.31;;;18.97
13497;BMP180;6820;49.374;8.452;2023-03-14T08:15:26;98510.31;;;19.11
13497;BMP180;6820;49.374;8.452;2023-03-14T08:19:28;98518.81;;;19.34
13497;BMP180;6820;49.374;8.452;2023-03-14T08:23:30;98509.34;;;19.45
13497;BMP180;6820;49.374;8.452;2023-03-14T08:27:31;98506.75;;;19.56
13497;BMP180;6820;49.374;8.452;2023-03-14T08:31:34;98515.25;;;19.69
13497;BMP180;6820;49.374;8.452;2023-03-14T08:35:37;98509.22;;;19.80
13497;BMP180;6820;49.374;8.452;2023-03-14T08:39:40;98506.66;;;19.82
13497;BMP180;6820;49.374;8.452;2023-03-14T08:43:41;98505.81;;;19.77
13497;BMP180;6820;49.374;8.452;2023-03-14T08:47:44;98511.00;;;19.65
13497;BMP180;6820;49.374;8.452;2023-03-14T08:51:45;98504.13;;;19.64
13497;BMP180;6820;49.374;8.452;2023-03-14T08:55:50;98510.19;;;19.51
13497;BMP180;6820;49.374;8.452;2023-03-14T08:59:54;98505.84;;;19.65
13497;BMP180;6820;49.374;8.452;2023-03-14T09:03:56;98517.03;;;19.55
13497;BMP180;6820;49.374;8.452;2023-03-14T09:07:58;98521.34;;;19.41
13497;BMP180;6820;49.374;8.452;2023-03-14T09:12:00;98522.22;;;19.34
13497;BMP180;6820;49.374;8.452;2023-03-14T09:16:02;98542.75;;;19.42
13497;BMP180;6820;49.374;8.452;2023-03-14T09:20:03;98539.31;;;19.50
13497;BMP180;6820;49.374;8.452;2023-03-14T09:24:08;98543.56;;;19.60
13497;BMP180;6820;49.374;8.452;2023-03-14T09:28:10;98541.81;;;19.78
13497;BMP180;6820;49.374;8.452;2023-03-14T09:32:11;98545.03;;;20.18
13497;BMP180;6820;49.374;8.452;2023-03-14T09:36:13;98542.97;;;20.68
13497;BMP180;6820;49.374;8.452;2023-03-14T09:40:16;98556.56;;;20.87
13497;BMP180;6820;49.374;8.452;2023-03-14T09:48:30;98548.84;;;20.87
13497;BMP180;6820;49.374;8.452;2023-03-14T09:52:35;98536.84;;;20.83
13497;BMP180;6820;49.374;8.452;2023-03-14T09:56:38;98557.63;;;20.61
13497;BMP180;6820;49.374;8.452;2023-03-14T10:00:39;98571.47;;;20.35
13497;BMP180;6820;49.374;8.452;2023-03-14T10:04:42;98559.56;;;20.19
13497;BMP180;6820;49.374;8.452;2023-03-14T10:08:45;98561.34;;;20.13
13497;BMP180;6820;49.374;8.452;2023-03-14T10:12:55;98552.72;;;20.20
13497;BMP180;6820;49.374;8.452;2023-03-14T10:17:05;98556.13;;;20.26
13497;BMP180;6820;49.374;8.452;2023-03-14T10:21:28;98557.88;;;20.18
13497;BMP180;6820;49.374;8.452;2023-03-14T10:25:32;98547.66;;;20.08
13497;BMP180;6820;49.374;8.452;2023-03-14T10:29:34;98550.22;;;20.08
13497;BMP180;6820;49.374;8.452;2023-03-14T10:33:37;98544.22;;;20.08
13497;BMP180;6820;49.374;8.452;2023-03-14T10:37:51;98556.22;;;20.06
13497;BMP180;6820;49.374;8.452;2023-03-14T10:42:03;98563.19;;;19.89
13497;BMP180;6820;49.374;8.452;2023-03-14T10:46:09;98552.06;;;19.83
13497;BMP180;6820;49.374;8.452;2023-03-14T10:50:31;98561.50;;;19.78
13497;BMP180;6820;49.374;8.452;2023-03-14T10:54:33;98570.94;;;19.64
13497;BMP180;6820;49.374;8.452;2023-03-14T10:58:40;98558.19;;;19.33
13497;BMP180;6820;49.374;8.452;2023-03-14T11:07:16;98579.63;;;19.16
13497;BMP180;6820;49.374;8.452;2023-03-14T11:11:23;98586.44;;;19.25
13497;BMP180;6820;49.374;8.452;2023-03-14T11:15:36;98591.56;;;19.34
13497;BMP180;6820;49.374;8.452;2023-03-14T11:28:31;98600.97;;;19.40
13497;BMP180;6820;49.374;8.452;2023-03-14T11:32:45;98614.69;;;19.31
13497;BMP180;6820;49.374;8.452;2023-03-14T11:36:53;98627.53;;;19.08
13497;BMP180;6820;49.374;8.452;2023-03-14T11:40:59;98656.56;;;18.82
13497;BMP180;6820;49.374;8.452;2023-03-14T11:45:01;98671.13;;;18.74
13497;BMP180;6820;49.374;8.452;2023-03-14T11:53:53;98697.59;;;18.61
13497;BMP180;6820;49.374;8.452;2023-03-14T11:58:05;98712.97;;;18.60
13497;BMP180;6820;49.374;8.452;2023-03-14T12:02:51;98742.03;;;18.51
13497;BMP180;6820;49.374;8.452;2023-03-14T12:06:56;98782.97;;;18.29
13497;BMP180;6820;49.374;8.452;2023-03-14T12:11:06;98799.16;;;18.21
13497;BMP180;6820;49.374;8.452;2023-03-14T12:15:21;98811.13;;;18.22
13497;BMP180;6820;49.374;8.452;2023-03-14T12:19:27;98806.00;;;18.22
13497;BMP180;6820;49.374;8.452;2023-03-14T12:23:37;98843.50;;;18.08
13497;BMP180;6820;49.374;8.452;2023-03-14T12:27:49;98867.31;;;18.01
13497;BMP180;6820;49.374;8.452;2023-03-14T12:32:23;98884.16;;;17.74
13497;BMP180;6820;49.374;8.452;2023-03-14T12:45:23;98936.22;;;16.98
13497;BMP180;6820;49.374;8.452;2023-03-14T12:49:32;98951.47;;;16.91
13497;BMP180;6820;49.374;8.452;2023-03-14T12:54:04;98941.53;;;17.11
13497;BMP180;6820;49.374;8.452;2023-03-14T13:02:25;98975.31;;;17.53
13497;BMP180;6820;49.374;8.452;2023-03-14T13:06:48;98996.13;;;17.81
13497;BMP180;6820;49.374;8.452;2023-03-14T13:10:50;98983.47;;;17.94
13497;BMP180;6820;49.374;8.452;2023-03-14T13:14:52;99000.69;;;18.05
13497;BMP180;6820;49.374;8.452;2023-03-14T13:19:03;99010.19;;;18.15
13497;BMP180;6820;49.374;8.452;2023-03-14T13:23:05;99018.84;;;18.26
13497;BMP180;6820;49.374;8.452;2023-03-14T13:27:20;99036.78;;;18.26
13497;BMP180;6820;49.374;8.452;2023-03-14T13:31:25;99046.13;;;18.18
13497;BMP180;6820;49.374;8.452;2023-03-14T13:35:29;99047.78;;;18.18
13497;BMP180;6820;49.374;8.452;2023-03-14T13:39:31;99073.47;;;18.19
13497;BMP180;6820;49.374;8.452;2023-03-14T13:43:39;99095.72;;;18.22
13497;BMP180;6820;49.374;8.452;2023-03-14T13:47:42;99098.44;;;18.36
13497;BMP180;6820;49.374;8.452;2023-03-14T13:51:44;99110.41;;;18.39
13497;BMP180;6820;49.374;8.452;2023-03-14T13:55:46;99127.22;;;18.12
13497;BMP180;6820;49.374;8.452;2023-03-14T14:00:05;99158.53;;;17.89
13497;BMP180;6820;49.374;8.452;2023-03-14T14:04:15;99172.34;;;18.01
13497;BMP180;6820;49.374;8.452;2023-03-14T14:08:18;99175.25;;;18.28
13497;BMP180;6820;49.374;8.452;2023-03-14T14:12:27;99161.81;;;18.49
13497;BMP180;6820;49.374;8.452;2023-03-14T14:16:30;99167.13;;;18.65
13497;BMP180;6820;49.374;8.452;2023-03-14T14:20:35;99175.50;;;18.48
13497;BMP180;6820;49.374;8.452;2023-03-14T14:24:38;99193.44;;;18.45
13497;BMP180;6820;49.374;8.452;2023-03-14T14:28:40;99197.03;;;18.61
13497;BMP180;6820;49.374;8.452;2023-03-14T14:32:42;99203.84;;;18.60
13497;BMP180;6820;49.374;8.452;2023-03-14T14:36:45;99208.13;;;18.58
13497;BMP180;6820;49.374;8.452;2023-03-14T14:40:53;99239.38;;;18.28
13497;BMP180;6820;49.374;8.452;2023-03-14T14:44:57;99244.84;;;17.93
13497;BMP180;6820;49.374;8.452;2023-03-14T14:49:05;99273.59;;;17.72
13497;BMP180;6820;49.374;8.452;2023-03-14T14:53:39;99281.16;;;17.65
13497;BMP180;6820;49.374;8.452;2023-03-14T14:57:49;99293.25;;;17.73
13497;BMP180;6820;49.374;8.452;2023-03-14T15:01:55;99302.81;;;17.83
13497;BMP180;6820;49.374;8.452;2023-03-14T15:05:58;99319.09;;;17.87
13497;BMP180;6820;49.374;8.452;2023-03-14T15:09:59;99324.22;;;17.88
13497;BMP180;6820;49.374;8.452;2023-03-14T15:14:01;99329.53;;;18.01
13497;BMP180;6820;49.374;8.452;2023-03-14T15:18:11;99311.53;;;17.94
13497;BMP180;6820;49.374;8.452;2023-03-14T15:22:14;99342.03;;;17.79
13497;BMP180;6820;49.374;8.452;2023-03-14T15:26:22;99321.44;;;17.75
13497;BMP180;6820;49.374;8.452;2023-03-14T15:30:24;99331.69;;;17.75
13497;BMP180;6820;49.374;8.452;2023-03-14T15:34:26;99323.94;;;17.70
13497;BMP180;6820;49.374;8.452;2023-03-14T15:38:29;99311.31;;;18.36
13497;BMP180;6820;49.374;8.452;2023-03-14T15:42:30;99306.94;;;18.95
13497;BMP180;6820;49.374;8.452;2023-03-14T15:46:32;99311.28;;;19.01
13497;BMP180;6820;49.374;8.452;2023-03-14T15:50:33;99307.00;;;19.03
13497;BMP180;6820;49.374;8.452;2023-03-14T15:54:35;99313.75;;;18.95
13497;BMP180;6820;49.374;8.452;2023-03-14T15:58:36;99322.28;;;18.91
13497;BMP180;6820;49.374;8.452;2023-03-14T16:02:41;99332.41;;;18.81
13497;BMP180;6820;49.374;8.452;2023-03-14T16:06:44;99333.22;;;18.78
13497;BMP180;6820;49.374;8.452;2023-03-14T16:10:46;99340.47;;;18.43
13497;BMP180;6820;49.374;8.452;2023-03-14T16:14:47;99347.06;;;18.28
13497;BMP180;6820;49.374;8.452;2023-03-14T16:18:49;99346.13;;;18.23
13497;BMP180;6820;49.374;8.452;2023-03-14T16:22:51;99365.69;;;18.13
13497;BMP180;6820;49.374;8.452;2023-03-14T16:26:52;99360.94;;;17.87
13497;BMP180;6820;49.374;8.452;2023-03-14T16:31:02;99384.25;;;17.54
13497;BMP180;6820;49.374;8.452;2023-03-14T16:35:05;99391.59;;;17.33
13497;BMP180;6820;49.374;8.452;2023-03-14T16:39:07;99405.84;;;17.21
13497;BMP180;6820;49.374;8.452;2023-03-14T16:43:08;99412.69;;;17.22
13497;BMP180;6820;49.374;8.452;2023-03-14T16:47:17;99414.44;;;17.24
13497;BMP180;6820;49.374;8.452;2023-03-14T16:51:19;99423.75;;;17.19
13497;BMP180;6820;49.374;8.452;2023-03-14T16:55:21;99432.13;;;17.12
13497;BMP180;6820;49.374;8.452;2023-03-14T16:59:22;99448.03;;;17.00
13497;BMP180;6820;49.374;8.452;2023-03-14T17:03:26;99442.72;;;16.91
13497;BMP180;6820;49.374;8.452;2023-03-14T17:07:28;99450.22;;;16.82
13497;BMP180;6820;49.374;8.452;2023-03-14T17:11:31;99458.66;;;16.78
13497;BMP180;6820;49.374;8.452;2023-03-14T17:15:36;99466.94;;;16.67
13497;BMP180;6820;49.374;8.452;2023-03-14T17:19:39;99470.75;;;16.48
13497;BMP180;6820;49.374;8.452;2023-03-14T17:23:40;99473.97;;;16.42
13497;BMP180;6820;49.374;8.452;2023-03-14T17:27:42;99488.28;;;16.34
13497;BMP180;6820;49.374;8.452;2023-03-14T17:31:46;99496.56;;;16.24
13497;BMP180;6820;49.374;8.452;2023-03-14T17:35:48;99503.19;;;16.16
13497;BMP180;6820;49.374;8.452;2023-03-14T17:39:49;99515.06;;;16.14
13497;BMP180;6820;49.374;8.452;2023-03-14T17:43:51;99531.22;;;16.13
13497;BMP180;6820;49.374;8.452;2023-03-14T17:47:52;99543.00;;;16.10
13497;BMP180;6820;49.374;8.452;2023-03-14T17:51:54;99564.28;;;16.09
13497;BMP180;6820;49.374;8.452;2023-03-14T17:55:56;99565.00;;;16.03
13497;BMP180;6820;49.374;8.452;2023-03-14T17:59:58;99578.34;;;15.93
13497;BMP180;6820;49.374;8.452;2023-03-14T18:04:00;99592.22;;;15.72
13497;BMP180;6820;49.374;8.452;2023-03-14T18:08:02;99621.28;;;15.47
13497;BMP180;6820;49.374;8.452;2023-03-14T18:12:04;99628.97;;;15.21
13497;BMP180;6820;49.374;8.452;2023-03-14T18:16:12;99629.34;;;15.06
13497;BMP180;6820;49.374;8.452;2023-03-14T18:20:16;99650.84;;;14.88
13497;BMP180;6820;49.374;8.452;2023-03-14T18:24:19;99664.38;;;14.86
13497;BMP180;6820;49.374;8.452;2023-03-14T18:28:21;99671.88;;;14.81
13497;BMP180;6820;49.374;8.452;2023-03-14T18:32:23;99678.94;;;14.90
13497;BMP180;6820;49.374;8.452;2023-03-14T18:36:25;99681.72;;;14.95
13497;BMP180;6820;49.374;8.452;2023-03-14T18:40:27;99703.25;;;15.03
13497;BMP180;6820;49.374;8.452;2023-03-14T18:44:28;99705.88;;;15.06
13497;BMP180;6820;49.374;8.452;2023-03-14T18:48:30;99722.28;;;15.13
13497;BMP180;6820;49.374;8.452;2023-03-14T18:52:32;99732.59;;;15.16
13497;BMP180;6820;49.374;8.452;2023-03-14T18:56:33;99744.47;;;15.15
13497;BMP180;6820;49.374;8.452;2023-03-14T19:00:35;99745.50;;;14.95
13497;BMP180;6820;49.374;8.452;2023-03-14T19:04:37;99734.56;;;14.75
13497;BMP180;6820;49.374;8.452;2023-03-14T19:08:40;99759.78;;;14.67
13497;BMP180;6820;49.374;8.452;2023-03-14T19:12:43;99752.72;;;14.61
13497;BMP180;6820;49.374;8.452;2023-03-14T19:16:45;99754.66;;;14.66
13497;BMP180;6820;49.374;8.452;2023-03-14T19:20:55;99768.03;;;14.61
13497;BMP180;6820;49.374;8.452;2023-03-14T19:24:58;99788.97;;;14.52
13497;BMP180;6820;49.374;8.452;2023-03-14T19:28:59;99815.09;;;14.45
13497;BMP180;6820;49.374;8.452;2023-03-14T19:33:01;99824.25;;;14.40
13497;BMP180;6820;49.374;8.452;2023-03-14T19:37:03;99823.28;;;14.37
13497;BMP180;6820;49.374;8.452;2023-03-14T19:41:04;99829.25;;;14.39
13497;BMP180;6820;49.374;8.452;2023-03-14T19:45:07;99857.50;;;14.43
13497;BMP180;6820;49.374;8.452;2023-03-14T19:49:08;99867.16;;;14.30
13497;BMP180;6820;49.374;8.452;2023-03-14T19:53:11;99877.59;;;14.14
13497;BMP180;6820;49.374;8.452;2023-03-14T19:57:13;99886.09;;;13.95
13497;BMP180;6820;49.374;8.452;2023-03-14T20:01:14;99904.00;;;13.76
13497;BMP180;6820;49.374;8.452;2023-03-14T20:05:21;99922.38;;;13.69
13497;BMP180;6820;49.374;8.452;2023-03-14T20:09:24;99942.00;;;13.51
13497;BMP180;6820;49.374;8.452;2023-03-14T20:13:26;99929.56;;;13.39
13497;BMP180;6820;49.374;8.452;2023-03-14T20:17:27;99936.41;;;13.21
13497;BMP180;6820;49.374;8.452;2023-03-14T20:21:30;99931.59;;;13.08
13497;BMP180;6820;49.374;8.452;2023-03-14T20:25:32;99942.97;;;12.97
13497;BMP180;6820;49.374;8.452;2023-03-14T20:29:35;99957.06;;;12.55
13497;BMP180;6820;49.374;8.452;2023-03-14T20:33:37;99982.88;;;12.11
13497;BMP180;6820;49.374;8.452;2023-03-14T20:37:39;100003.56;;;11.85
13497;BMP180;6820;49.374;8.452;2023-03-14T20:41:41;100021.81;;;11.45
13497;BMP180;6820;49.374;8.452;2023-03-14T20:45:43;100037.13;;;11.17
13497;BMP180;6820;49.374;8.452;2023-03-14T20:49:45;100035.53;;;10.87
13497;BMP180;6820;49.374;8.452;2023-03-14T20:53:46;100045.63;;;10.71
13497;BMP180;6820;49.374;8.452;2023-03-14T20:57:48;100050.13;;;10.61
13497;BMP180;6820;49.374;8.452;2023-03-14T21:01:49;100062.91;;;10.48
13497;BMP180;6820;49.374;8.452;2023-03-14T21:05:52;100094.59;;;10.42
13497;BMP180;6820;49.374;8.452;2023-03-14T21:09:53;100104.66;;;10.40
13497;BMP180;6820;49.374;8.452;2023-03-14T21:13:55;100111.22;;;10.37
13497;BMP180;6820;49.374;8.452;2023-03-14T21:17:56;100103.44;;;10.48
13497;BMP180;6820;49.374;8.452;2023-03-14T21:22:03;100093.47;;;10.51
13497;BMP180;6820;49.374;8.452;2023-03-14T21:26:05;100104.31;;;10.49
13497;BMP180;6820;49.374;8.452;2023-03-14T21:30:09;100106.72;;;10.47
13497;BMP180;6820;49.374;8.452;2023-03-14T21:34:11;100107.53;;;10.46
13497;BMP180;6820;49.374;8.452;2023-03-14T21:38:12;100127.59;;;10.58
13497;BMP180;6820;49.374;8.452;2023-03-14T21:42:14;100134.78;;;10.64
13497;BMP180;6820;49.374;8.452;2023-03-14T21:46:16;100144.66;;;10.74
13497;BMP180;6820;49.374;8.452;2023-03-14T21:50:22;100142.44;;;10.80
13497;BMP180;6820;49.374;8.452;2023-03-14T21:54:23;100147.50;;;10.80
13497;BMP180;6820;49.374;8.452;2023-03-14T21:58:25;100160.63;;;10.88
13497;BMP180;6820;49.374;8.452;2023-03-14T22:02:27;100159.72;;;10.87
13497;BMP180;6820;49.374;8.452;2023-03-14T22:06:28;100144.94;;;10.94
13497;BMP180;6820;49.374;8.452;2023-03-14T22:10:30;100150.06;;;11.10
13497;BMP180;6820;49.374;8.452;2023-03-14T22:14:32;100153.03;;;11.18
13497;BMP180;6820;49.374;8.452;2023-03-14T22:18:34;100156.31;;;11.31
13497;BMP180;6820;49.374;8.452;2023-03-14T22:22:36;100173.88;;;11.42
13497;BMP180;6820;49.374;8.452;2023-03-14T22:26:38;100179.06;;;11.59
13497;BMP180;6820;49.374;8.452;2023-03-14T22:30:40;100194.34;;;11.61
13497;BMP180;6820;49.374;8.452;2023-03-14T22:34:42;100197.53;;;11.57
13497;BMP180;6820;49.374;8.452;2023-03-14T22:38:43;100210.84;;;11.53
13497;BMP180;6820;49.374;8.452;2023-03-14T22:42:45;100215.13;;;11.54
13497;BMP180;6820;49.374;8.452;2023-03-14T22:46:48;100221.31;;;11.59
13497;BMP180;6820;49.374;8.452;2023-03-14T22:50:50;100222.53;;;11.65
13497;BMP180;6820;49.374;8.452;2023-03-14T22:54:55;100235.94;;;11.79
13497;BMP180;6820;49.374;8.452;2023-03-14T22:58:57;100238.81;;;11.85
13497;BMP180;6820;49.374;8.452;2023-03-14T23:02:59;100249.22;;;11.89
13497;BMP180;6820;49.374;8.452;2023-03-14T23:07:01;100249.28;;;11.90
13497;BMP180;6820;49.374;8.452;2023-03-14T23:11:05;100254.63;;;11.95
13497;BMP180;6820;49.374;8.452;2023-03-14T23:15:07;100267.63;;;12.01
13497;BMP180;6820;49.374;8.452;2023-03-14T23:19:09;100271.03;;;12.01
13497;BMP180;6820;49.374;8.452;2023-03-14T23:23:11;100276.53;;;12.09
13497;BMP180;6820;49.374;8.452;2023-03-14T23:27:16;100282.56;;;12.11
13497;BMP180;6820;49.374;8.452;2023-03-14T23:31:19;100299.53;;;12.12
13497;BMP180;6820;49.374;8.452;2023-03-14T23:35:21;100293.34;;;12.07
13497;BMP180;6820;49.374;8.452;2023-03-14T23:39:23;100304.31;;;12.06
13497;BMP180;6820;49.374;8.452;2023-03-14T23:43:26;100312.88;;;12.08
13497;BMP180;6820;49.374;8.452;2023-03-14T23:47:28;100322.16;;;12.07
13497;BMP180;6820;49.374;8.452;2023-03-14T23:51:29;100329.69;;;12.06
13497;BMP180;6820;49.374;8.452;2023-03-14T23:55:31;100342.63;;;11.94
13497;BMP180;6820;49.374;8.452;2023-03-14T23:59:33;100358.78;;;11.96
